Time;durP1;ratioP1;P1;durP2;ratioP2;P2;SDS_P1;SDS_P2;PMS_P1;PMS_P2;Temp;Humidity;BMP_temperature;BMP_pressure;BME280_temperature;BME280_humidity;BME280_pressure;Samples;Min_cycle;Max_cycle;Signal;HPM_P1;HPM_P2
2022/04/29 00:02:21;;;;;;;27.77;12.30;;;;;;;8.98;100.00;102918.84;5204295;28;20475;-69
2022/04/29 00:04:52;;;;;;;23.17;12.25;;;;;;;8.91;100.00;102910.38;5204243;28;20029;-69
2022/04/29 00:07:22;;;;;;;31.35;13.35;;;;;;;8.88;100.00;102909.72;5203995;28;20061;-69
2022/04/29 00:09:53;;;;;;;27.23;12.85;;;;;;;8.82;100.00;102911.84;5204206;28;20013;-69
2022/04/29 00:12:23;;;;;;;25.92;13.38;;;;;;;8.79;100.00;102912.09;5204825;28;20108;-69
2022/04/29 00:14:55;;;;;;;30.08;13.73;;;;;;;8.73;100.00;102906.25;5203584;28;20032;-69
2022/04/29 00:17:26;;;;;;;27.42;12.88;;;;;;;8.69;100.00;102902.97;5204222;28;20053;-68
2022/04/29 00:19:57;;;;;;;31.67;13.68;;;;;;;8.74;100.00;102905.31;5204027;28;20104;-68
2022/04/29 00:22:27;;;;;;;24.80;13.00;;;;;;;8.73;100.00;102898.25;5204251;28;20116;-68
2022/04/29 00:24:57;;;;;;;29.63;12.50;;;;;;;8.71;100.00;102906.38;5203925;28;20475;-69
2022/04/29 00:27:28;;;;;;;32.08;14.15;;;;;;;8.72;100.00;102904.56;5203888;28;20457;-69
2022/04/29 00:29:58;;;;;;;25.85;12.95;;;;;;;8.71;100.00;102900.16;5203700;28;20033;-69
2022/04/29 00:32:29;;;;;;;22.92;12.40;;;;;;;8.68;100.00;102906.56;5204090;28;20014;-68
2022/04/29 00:34:59;;;;;;;29.58;13.23;;;;;;;8.65;100.00;102905.94;5203794;28;20051;-68
2022/04/29 00:37:30;;;;;;;27.30;13.52;;;;;;;8.62;100.00;102901.66;5196850;28;20032;-69
2022/04/29 00:40:00;;;;;;;30.33;12.32;;;;;;;8.58;100.00;102897.47;5192371;28;20056;-69
2022/04/29 00:42:31;;;;;;;23.30;12.77;;;;;;;8.56;100.00;102892.22;5202166;28;20112;-69
2022/04/29 00:45:02;;;;;;;34.50;14.38;;;;;;;8.55;100.00;102890.50;5203665;28;20021;-69
2022/04/29 00:47:32;;;;;;;35.20;14.07;;;;;;;8.56;100.00;102891.38;5203949;28;20025;-68
2022/04/29 00:50:03;;;;;;;24.05;13.38;;;;;;;8.55;100.00;102887.84;5203749;28;20029;-69
2022/04/29 00:52:38;;;;;;;31.10;12.93;;;;;;;8.53;100.00;102884.41;5203836;28;20031;-69
2022/04/29 00:55:12;;;;;;;32.42;14.27;;;;;;;8.52;100.00;102879.16;5203349;28;20079;-69
2022/04/29 00:57:47;;;;;;;30.98;13.70;;;;;;;8.50;100.00;102873.91;5203588;28;20048;-68
2022/04/29 01:00:19;;;;;;;34.92;14.13;;;;;;;8.52;100.00;102871.13;5203668;28;20398;-69
2022/04/29 01:02:52;;;;;;;31.30;13.82;;;;;;;8.53;100.00;102876.38;5203996;28;20089;-69
2022/04/29 01:05:25;;;;;;;29.48;13.52;;;;;;;8.53;100.00;102873.72;5203399;28;20014;-69
2022/04/29 01:07:56;;;;;;;26.10;12.98;;;;;;;8.52;100.00;102863.09;5203969;28;20498;-69
2022/04/29 01:10:27;;;;;;;29.95;13.20;;;;;;;8.52;100.00;102863.09;5203661;28;20033;-69
2022/04/29 01:13:18;;;;;;;38.60;14.27;;;;;;;8.52;100.00;102863.94;5203181;28;20026;-70
2022/04/29 01:16:06;;;;;;;25.48;14.00;;;;;;;8.56;100.00;102861.94;5203241;28;20022;-69
2022/04/29 01:18:37;;;;;;;30.83;12.77;;;;;;;8.56;100.00;102864.59;5204194;28;20116;-70
2022/04/29 01:21:08;;;;;;;33.90;14.40;;;;;;;8.60;100.00;102862.59;5203885;28;20079;-69
2022/04/29 01:23:43;;;;;;;28.20;12.32;;;;;;;8.63;100.00;102855.19;5203720;28;20411;-70
2022/04/29 01:26:34;;;;;;;25.63;12.75;;;;;;;8.69;100.00;102861.97;5203154;28;20080;-69
2022/04/29 01:29:06;;;;;;;29.80;12.63;;;;;;;8.70;100.00;102855.66;5203893;28;20498;-69
2022/04/29 01:31:47;;;;;;;30.40;11.40;;;;;;;8.72;100.00;102859.91;5203703;28;20036;-69
2022/04/29 01:34:17;;;;;;;20.65;11.45;;;;;;;8.73;100.00;102848.25;5203333;28;20025;-69
2022/04/29 01:36:48;;;;;;;25.10;11.95;;;;;;;8.74;100.00;102846.47;5200844;28;20537;-70
2022/04/29 01:39:18;;;;;;;29.45;12.20;;;;;;;8.75;100.00;102848.16;5187786;28;20033;-70
2022/04/29 01:41:48;;;;;;;21.17;12.10;;;;;;;8.77;100.00;102846.22;5203603;28;20116;-69
2022/04/29 01:44:20;;;;;;;25.25;11.65;;;;;;;8.76;100.00;102848.03;5203493;28;20025;-69
2022/04/29 01:46:51;;;;;;;24.55;12.98;;;;;;;8.75;100.00;102845.47;5203516;28;20082;-69
2022/04/29 01:49:25;;;;;;;21.20;12.07;;;;;;;8.75;100.00;102846.34;5204894;28;20029;-69
2022/04/29 01:51:57;;;;;;;26.65;12.70;;;;;;;8.74;100.00;102843.78;5207428;28;20489;-69
2022/04/29 01:54:27;;;;;;;28.92;13.23;;;;;;;8.72;100.00;102845.69;5207405;28;20041;-69
2022/04/29 01:56:58;;;;;;;28.52;11.73;;;;;;;8.70;100.00;102851.16;5207162;28;20025;-69
2022/04/29 01:59:30;;;;;;;21.52;11.63;;;;;;;8.72;100.00;102843.00;5207156;28;20494;-68
2022/04/29 02:02:02;;;;;;;25.58;12.00;;;;;;;8.74;100.00;102849.13;5206976;28;20037;-69
2022/04/29 02:04:34;;;;;;;26.33;12.43;;;;;;;8.72;100.00;102851.88;5207088;28;20075;-69
2022/04/29 02:07:06;;;;;;;22.63;11.80;;;;;;;8.69;100.00;102853.94;5206767;28;20022;-70
2022/04/29 02:09:37;;;;;;;25.17;12.70;;;;;;;8.66;100.00;102851.47;5207166;28;20037;-69
2022/04/29 02:12:09;;;;;;;28.73;11.65;;;;;;;8.62;100.00;102852.63;5207257;28;20518;-69
2022/04/29 02:14:42;;;;;;;23.50;12.40;;;;;;;8.59;100.00;102845.69;5206388;28;20044;-69
2022/04/29 02:17:12;;;;;;;26.92;12.50;;;;;;;8.54;100.00;102842.47;5206929;28;20104;-69
2022/04/29 02:19:43;;;;;;;25.90;11.63;;;;;;;8.52;100.00;102837.19;5206784;28;20101;-68
2022/04/29 02:22:14;;;;;;;32.47;12.35;;;;;;;8.54;100.00;102837.97;5206640;28;20029;-69
2022/04/29 02:24:44;;;;;;;32.33;12.70;;;;;;;8.53;100.00;102840.72;5206247;28;20025;-69
2022/04/29 02:27:15;;;;;;;25.23;12.05;;;;;;;8.55;100.00;102838.81;5206642;28;20036;-70
2022/04/29 02:29:46;;;;;;;28.05;12.32;;;;;;;8.57;100.00;102837.75;5206669;28;20034;-70
2022/04/29 02:32:17;;;;;;;28.30;12.05;;;;;;;8.59;100.00;102845.69;5206744;28;20018;-69
2022/04/29 02:34:48;;;;;;;32.47;11.85;;;;;;;8.57;100.00;102843.09;5206881;28;20463;-70
2022/04/29 02:37:18;;;;;;;24.67;12.63;;;;;;;8.52;100.00;102831.00;5203964;28;20021;-70
2022/04/29 02:39:49;;;;;;;23.60;11.27;;;;;;;8.50;100.00;102835.59;5193297;28;20033;-70
2022/04/29 02:42:19;;;;;;;30.08;12.13;;;;;;;8.50;100.00;102835.59;5206426;28;20018;-69
2022/04/29 02:44:50;;;;;;;27.83;12.25;;;;;;;8.47;100.00;102833.13;5206300;28;20080;-70
2022/04/29 02:47:20;;;;;;;24.60;11.57;;;;;;;8.47;100.00;102833.97;5206072;28;20025;-70
2022/04/29 02:49:51;;;;;;;34.00;11.93;;;;;;;8.46;100.00;102837.63;5206418;28;20028;-69
2022/04/29 02:52:21;;;;;;;29.13;12.32;;;;;;;8.46;100.00;102845.66;5206158;28;20467;-70
2022/04/29 02:54:52;;;;;;;27.08;12.95;;;;;;;8.46;100.00;102844.78;5206089;28;20029;-69
2022/04/29 02:57:22;;;;;;;26.40;11.93;;;;;;;8.46;100.00;102837.63;5205911;28;20022;-68
2022/04/29 02:59:53;;;;;;;26.02;11.95;;;;;;;8.43;100.00;102840.50;5205994;28;20033;-68
2022/04/29 03:02:23;;;;;;;30.25;12.00;;;;;;;8.43;100.00;102845.84;5205329;28;20059;-69
2022/04/29 03:04:54;;;;;;;21.20;12.73;;;;;;;8.42;100.00;102837.94;5206057;28;20040;-69
2022/04/29 03:07:24;;;;;;;24.13;11.90;;;;;;;8.41;100.00;102839.75;5206038;28;20029;-69
2022/04/29 03:09:55;;;;;;;26.25;11.75;;;;;;;8.39;100.00;102836.34;5205692;28;20496;-68
2022/04/29 03:12:25;;;;;;;22.20;11.82;;;;;;;8.38;100.00;102831.94;5205593;28;20475;-68
2022/04/29 03:20:49;;;;;;;32.30;12.65;;;;;;;8.36;100.00;102827.63;5193825;28;20053;-69
2022/04/29 03:23:20;;;;;;;29.58;11.82;;;;;;;8.32;100.00;102832.31;5205708;28;20021;-68
2022/04/29 03:25:50;;;;;;;26.40;11.27;;;;;;;8.30;100.00;102827.06;5205511;28;20083;-69
2022/04/29 03:28:21;;;;;;;25.52;11.63;;;;;;;8.30;100.00;102829.75;5205283;28;20021;-69
2022/04/29 03:30:52;;;;;;;29.75;12.65;;;;;;;8.30;100.00;102829.75;5205470;28;20112;-68
2022/04/29 03:33:22;;;;;;;23.77;11.07;;;;;;;8.32;100.00;102829.63;5205422;28;20467;-69
2022/04/29 03:35:53;;;;;;;30.40;12.10;;;;;;;8.34;100.00;102832.22;5204983;28;20028;-69
2022/04/29 03:38:25;;;;;;;21.33;10.93;;;;;;;8.30;100.00;102834.25;5194169;28;20022;-69
2022/04/29 03:40:55;;;;;;;29.48;12.15;;;;;;;8.29;100.00;102830.72;5200969;28;20048;-69
2022/04/29 03:43:26;;;;;;;34.70;12.68;;;;;;;8.25;100.00;102823.84;5205409;28;20336;-69
2022/04/29 03:45:57;;;;;;;31.85;12.23;;;;;;;8.24;100.00;102823.97;5204504;28;20067;-69
2022/04/29 03:48:27;;;;;;;27.73;12.18;;;;;;;8.20;100.00;102823.31;5205159;28;20025;-69
2022/04/29 03:50:58;;;;;;;25.90;11.75;;;;;;;8.20;100.00;102825.13;5204965;28;20080;-68
2022/04/29 03:53:28;;;;;;;28.27;12.20;;;;;;;8.20;100.00;102817.97;5205325;28;20509;-68
2022/04/29 03:55:58;;;;;;;30.25;11.60;;;;;;;8.21;100.00;102822.34;5204884;28;20028;-68
2022/04/29 03:58:29;;;;;;;31.77;12.35;;;;;;;8.21;100.00;102824.16;5204498;28;20236;-68
2022/04/29 04:00:59;;;;;;;30.08;11.73;;;;;;;8.20;100.00;102823.31;5204799;28;20105;-68
2022/04/29 04:03:30;;;;;;;33.50;11.20;;;;;;;8.21;100.00;102830.34;5204646;28;20052;-68
2022/04/29 04:08:49;;;;;;;25.95;10.63;;;;;;;8.19;100.00;102820.75;5204481;28;20109;-69
2022/04/29 04:11:20;;;;;;;25.38;11.40;;;;;;;8.17;100.00;102817.28;5204569;28;20133;-69
2022/04/29 04:13:50;;;;;;;20.95;11.00;;;;;;;8.14;100.00;102822.88;5204128;28;20045;-69
2022/04/29 04:16:23;;;;;;;29.27;11.50;;;;;;;8.16;100.00;102824.47;5203106;28;20091;-68
2022/04/29 04:18:54;;;;;;;27.38;11.40;;;;;;;8.13;100.00;102823.81;5204801;28;20029;-68
2022/04/29 04:21:24;;;;;;;26.10;11.90;;;;;;;8.10;100.00;102816.84;5203902;28;20450;-69
2022/04/29 04:23:55;;;;;;;25.60;11.65;;;;;;;8.09;100.00;102815.16;5204536;28;20081;-69
2022/04/29 04:26:26;;;;;;;31.90;11.52;;;;;;;8.00;100.00;102803.25;5203876;28;20032;-69
2022/04/29 04:28:56;;;;;;;25.90;11.88;;;;;;;7.96;100.00;102808.88;5204825;28;20056;-69
2022/04/29 04:31:26;;;;;;;29.23;11.45;;;;;;;7.93;100.00;102806.41;5204340;28;20490;-69
2022/04/29 04:33:57;;;;;;;27.17;11.48;;;;;;;7.93;100.00;102804.63;5203927;28;20033;-68
2022/04/29 04:36:27;;;;;;;32.97;12.23;;;;;;;7.95;100.00;102808.03;5204410;28;20025;-68
2022/04/29 04:38:58;;;;;;;33.60;11.40;;;;;;;7.92;100.00;102802.88;5190800;28;20100;-69
2022/04/29 04:41:29;;;;;;;30.30;12.57;;;;;;;7.93;100.00;102801.94;5204238;28;20031;-69
2022/04/29 04:43:59;;;;;;;25.98;11.00;;;;;;;7.91;100.00;102803.84;5204045;28;20402;-68
2022/04/29 04:46:30;;;;;;;29.33;12.02;;;;;;;7.88;100.00;102813.88;5203560;28;20051;-69
2022/04/29 04:49:00;;;;;;;25.30;11.82;;;;;;;7.83;100.00;102808.88;5203880;28;20022;-69
2022/04/29 04:51:30;;;;;;;27.70;10.20;;;;;;;7.82;100.00;102817.81;5204135;28;20052;-69
2022/04/29 04:54:01;;;;;;;26.95;11.95;;;;;;;7.80;100.00;102809.06;5203955;28;20078;-69
2022/04/29 04:56:32;;;;;;;27.45;11.27;;;;;;;7.79;100.00;102815.34;5203792;28;20052;-68
2022/04/29 04:59:02;;;;;;;29.33;11.88;;;;;;;7.77;100.00;102817.25;5203415;28;20025;-69
2022/04/29 05:01:33;;;;;;;33.47;11.75;;;;;;;7.73;100.00;102816.63;5203960;28;20100;-68
2022/04/29 05:04:03;;;;;;;25.10;11.52;;;;;;;7.71;100.00;102815.84;5203694;28;20029;-69
2022/04/29 05:06:36;;;;;;;28.67;11.52;;;;;;;7.71;100.00;102815.84;5203540;28;20026;-69
2022/04/29 05:09:08;;;;;;;44.35;12.60;;;;;;;7.74;100.00;102822.81;5203453;28;20017;-69
2022/04/29 05:11:38;;;;;;;26.92;11.40;;;;;;;7.84;100.00;102829.28;5202616;28;20446;-69
2022/04/29 05:14:09;;;;;;;36.75;12.38;;;;;;;7.85;100.00;102817.63;5203389;28;20021;-70
2022/04/29 05:16:39;;;;;;;26.92;11.70;;;;;;;7.90;100.00;102826.19;5203792;28;20037;-69
2022/04/29 05:19:10;;;;;;;29.95;12.38;;;;;;;7.87;100.00;102820.19;5203773;28;20022;-69
2022/04/29 05:21:40;;;;;;;27.50;11.60;;;;;;;7.85;100.00;102822.97;5203335;28;20031;-69
2022/04/29 05:24:11;;;;;;;26.67;11.38;;;;;;;7.84;100.00;102829.28;5204981;28;20041;-69
2022/04/29 05:26:41;;;;;;;33.05;12.90;;;;;;;7.88;100.00;102830.78;5207650;28;20038;-70
2022/04/29 05:29:12;;;;;;;29.38;11.00;;;;;;;7.90;100.00;102831.53;5207907;28;20060;-70
2022/04/29 05:31:42;;;;;;;26.60;11.15;;;;;;;7.96;100.00;102832.94;5207722;28;20049;-69
2022/04/29 05:34:13;;;;;;;31.50;11.90;;;;;;;8.01;100.00;102829.00;5207111;28;20426;-70
2022/04/29 05:36:44;;;;;;;28.70;11.55;;;;;;;8.03;100.00;102832.47;5205757;28;20025;-69
2022/04/29 05:42:14;;;;;;;28.65;11.40;;;;;;;8.12;100.00;102840.81;5207731;28;20479;-70
2022/04/29 05:44:46;;;;;;;41.17;12.27;;;;;;;8.19;100.00;102840.31;5194821;28;20025;-69
2022/04/29 05:47:17;;;;;;;24.95;11.13;;;;;;;8.31;100.00;102846.66;5207285;28;20398;-68
2022/04/29 05:49:47;;;;;;;25.88;11.63;;;;;;;8.45;100.00;102846.63;5207296;28;20132;-69
2022/04/29 05:52:18;;;;;;;31.42;12.45;;;;;;;8.41;100.00;102850.44;5195139;28;20074;-69
2022/04/29 05:54:48;;;;;;;26.95;11.68;;;;;;;8.43;100.00;102845.84;5195791;28;20424;-69
2022/04/29 05:57:19;;;;;;;33.83;12.50;;;;;;;8.46;100.00;102840.28;5211716;28;20355;-68
2022/04/29 05:59:50;;;;;;;29.75;13.98;;;;;;;8.51;100.00;102845.34;5208443;28;20109;-69
2022/04/29 06:02:23;;;;;;;23.60;11.70;;;;;;;8.52;100.00;102850.56;5210830;28;20047;-69
2022/04/29 06:04:54;;;;;;;30.65;11.65;;;;;;;8.45;100.00;102845.75;5207428;28;20111;-69
2022/04/29 06:07:24;;;;;;;25.17;11.43;;;;;;;8.44;100.00;102838.69;5210644;28;20163;-69
2022/04/29 06:09:55;;;;;;;34.08;11.63;;;;;;;8.48;100.00;102849.09;5208498;28;20088;-69
2022/04/29 06:12:26;;;;;;;30.17;11.48;;;;;;;8.48;100.00;102854.44;5207986;28;20593;-69
2022/04/29 06:14:56;;;;;;;37.47;13.38;;;;;;;8.52;100.00;102852.41;5215332;28;20502;-68
2022/04/29 06:17:26;;;;;;;34.55;12.90;;;;;;;8.54;100.00;102858.53;5212754;28;20071;-69
2022/04/29 06:19:57;;;;;;;42.33;12.55;;;;;;;8.59;100.00;102855.53;5212390;28;20021;-69
2022/04/29 06:22:28;;;;;;;26.10;11.55;;;;;;;8.67;100.00;102843.31;5210224;28;20183;-69
2022/04/29 06:24:58;;;;;;;34.47;11.77;;;;;;;8.78;100.00;102846.09;5214586;28;20382;-68
2022/04/29 06:27:29;;;;;;;36.13;12.25;;;;;;;8.94;100.00;102845.94;5216321;28;20029;-69
2022/04/29 06:29:59;;;;;;;30.80;12.45;;;;;;;9.13;100.00;102856.19;5211915;28;20033;-69
2022/04/29 06:32:30;;;;;;;28.92;11.23;;;;;;;9.31;100.00;102854.03;5211207;28;20056;-69
2022/04/29 06:35:02;;;;;;;30.48;11.90;;;;;;;9.44;100.00;102854.88;5205047;28;20029;-69
2022/04/29 06:37:33;;;;;;;29.23;11.48;;;;;;;9.64;100.00;102857.94;5213652;28;20021;-69
2022/04/29 06:40:04;;;;;;;24.08;11.10;;;;;;;9.81;100.00;102858.41;5214147;28;20047;-69
2022/04/29 06:42:45;;;;;;;25.60;11.38;;;;;;;10.01;100.00;102858.78;5214889;28;20017;-69
2022/04/29 06:45:16;;;;;;;38.55;11.65;;;;;;;10.23;100.00;102863.41;5214174;28;20057;-69
2022/04/29 06:47:46;;;;;;;35.90;12.50;;;;;;;10.32;100.00;102868.09;5213592;28;20017;-70
2022/04/29 06:50:17;;;;;;;28.15;12.27;;;;;;;10.41;100.00;102874.63;5214026;28;20108;-69
2022/04/29 06:52:47;;;;;;;32.13;12.38;;;;;;;10.59;100.00;102874.09;5213271;28;20355;-69
2022/04/29 06:55:18;;;;;;;31.13;11.68;;;;;;;10.64;100.00;102879.06;5213126;28;20052;-69
2022/04/29 06:57:48;;;;;;;25.70;11.57;;;;;;;10.80;100.00;102884.16;5212184;28;20033;-69
2022/04/29 07:00:19;;;;;;;29.70;12.70;;;;;;;10.83;100.00;102879.38;5212236;28;20059;-69
2022/04/29 07:02:51;;;;;;;25.90;12.10;;;;;;;10.87;100.00;102890.75;5210947;28;20052;-68
2022/04/29 07:05:23;;;;;;;30.13;11.60;;;;;;;10.81;100.00;102885.84;5210170;28;20044;-70
2022/04/29 07:07:53;;;;;;;30.90;12.45;;;;;;;10.84;100.00;102883.78;5210793;28;20334;-69
2022/04/29 07:10:24;;;;;;;33.13;12.35;;;;;;;10.84;100.00;102886.47;5206182;28;20049;-70
2022/04/29 07:12:54;;;;;;;36.20;13.13;;;;;;;10.87;100.00;102880.84;5213428;28;20447;-70
2022/04/29 07:15:25;;;;;;;25.23;11.45;;;;;;;10.91;100.00;102878.78;5211320;28;20024;-69
2022/04/29 07:17:56;;;;;;;21.80;12.35;;;;;;;10.92;100.00;102866.22;5208621;28;20047;-69
2022/04/29 07:20:26;;;;;;;28.55;12.25;;;;;;;10.84;100.00;102870.38;5206809;28;20017;-70
2022/04/29 07:22:57;;;;;;;23.08;11.73;;;;;;;11.05;100.00;102872.34;5212822;28;20112;-69
2022/04/29 07:25:28;;;;;;;22.02;11.50;;;;;;;11.29;100.00;102867.72;5209712;28;20505;-70
2022/04/29 07:27:59;;;;;;;33.47;12.32;;;;;;;11.43;100.00;102857.69;5209636;28;20072;-70
2022/04/29 07:30:30;;;;;;;26.08;12.07;;;;;;;11.42;100.00;102867.59;5209352;28;20332;-69
2022/04/29 07:33:00;;;;;;;30.13;13.23;;;;;;;11.49;100.00;102866.13;5204938;28;20027;-69
2022/04/29 07:44:00;;;;;;;26.52;11.82;;;;;;;11.78;100.00;102862.91;5206552;28;20100;-70
2022/04/29 07:46:31;;;;;;;36.55;13.35;;;;;;;12.07;100.00;102864.09;5204657;28;20550;-69
2022/04/29 07:49:03;;;;;;;33.88;14.52;;;;;;;12.23;100.00;102870.91;5210255;28;20173;-69
2022/04/29 07:51:34;;;;;;;37.75;12.65;;;;;;;12.55;100.00;102877.13;5209681;28;20445;-69
2022/04/29 07:54:05;;;;;;;29.45;12.60;;;;;;;12.63;100.00;102881.84;5202722;28;20116;-70
2022/04/29 07:56:36;;;;;;;28.35;11.50;;;;;;;12.39;100.00;102874.84;5203803;28;20025;-69
2022/04/29 07:59:06;;;;;;;25.55;12.32;;;;;;;12.39;100.00;102871.31;5212485;28;20028;-69
2022/04/29 08:01:40;;;;;;;25.10;12.02;;;;;;;12.30;100.00;102869.38;5211143;28;20028;-70
2022/04/29 08:04:12;;;;;;;23.17;12.02;;;;;;;12.53;100.00;102865.63;5201601;28;20025;-70
2022/04/29 08:06:42;;;;;;;23.08;11.93;;;;;;;12.92;100.00;102863.19;5206354;28;20096;-70
2022/04/29 08:09:13;;;;;;;24.23;12.63;;;;;;;13.28;100.00;102856.47;5205177;28;20049;-69
2022/04/29 08:11:43;;;;;;;25.55;11.93;;;;;;;13.78;100.00;102861.03;5206511;28;20526;-70
2022/04/29 08:14:14;;;;;;;22.63;11.35;;;;;;;14.04;100.00;102872.16;5203223;28;20052;-70
2022/04/29 08:16:44;;;;;;;20.52;11.85;;;;;;;13.73;100.00;102867.69;5201923;28;20025;-70
2022/04/29 08:19:15;;;;;;;21.73;12.20;;;;;;;14.02;100.00;102876.84;5212540;28;20120;-70
2022/04/29 08:21:45;;;;;;;23.45;11.57;;;;;;;13.71;100.00;102885.03;5204666;28;20025;-69
2022/04/29 08:24:16;;;;;;;34.33;12.77;;;;;;;13.14;100.00;102879.19;5216490;28;20028;-70
2022/04/29 08:26:47;;;;;;;25.52;12.32;;;;;;;12.96;100.00;102889.75;5208187;28;20498;-70
2022/04/29 08:29:17;;;;;;;26.58;11.55;;;;;;;12.78;100.00;102877.00;5211828;28;20021;-70
2022/04/29 08:31:48;;;;;;;27.95;11.77;;;;;;;12.56;100.00;102873.44;5205015;28;20100;-69
2022/04/29 08:34:19;;;;;;;25.83;11.63;;;;;;;12.59;100.00;102873.19;5206883;28;20033;-69
2022/04/29 08:36:49;;;;;;;24.05;11.93;;;;;;;12.50;100.00;102873.97;5214056;28;20018;-70
2022/04/29 08:39:20;;;;;;;27.15;12.35;;;;;;;12.20;100.00;102882.78;5203843;28;20036;-69
2022/04/29 08:41:51;;;;;;;26.30;13.70;;;;;;;11.92;100.00;102876.13;5210816;28;20047;-69
2022/04/29 08:44:25;;;;;;;28.73;13.13;;;;;;;11.77;100.00;102875.50;5212165;28;20016;-70
2022/04/29 08:46:57;;;;;;;31.10;14.02;;;;;;;11.80;100.00;102869.03;5206400;28;20032;-70
2022/04/29 08:49:31;;;;;;;23.65;11.75;;;;;;;11.92;100.00;102876.97;5212247;28;20029;-70
2022/04/29 08:52:02;;;;;;;30.58;12.15;;;;;;;12.00;100.00;102889.81;5215563;28;20036;-70
2022/04/29 09:00:12;;;;;;;33.88;13.65;;;;;;;11.49;100.00;102894.84;5204728;28;20025;-70
2022/04/29 09:02:43;;;;;;;28.75;12.57;;;;;;;11.36;100.00;102894.97;5210768;28;20036;-69
2022/04/29 09:05:13;;;;;;;29.23;13.48;;;;;;;11.30;100.00;102892.78;5205899;28;20487;-70
2022/04/29 09:08:11;;;;;;;31.67;13.88;;;;;;;11.36;100.00;102885.06;5213136;28;20651;-70
2022/04/29 09:10:56;;;;;;;29.15;13.73;;;;;;;11.57;100.00;102868.19;5200663;28;20033;-69
2022/04/29 09:13:28;;;;;;;37.40;12.48;;;;;;;11.62;100.00;102866.00;5209263;28;20107;-69
2022/04/29 09:16:04;;;;;;;26.67;12.70;;;;;;;11.53;100.00;102862.22;5206958;28;20052;-69
2022/04/29 09:18:47;;;;;;;32.40;13.40;;;;;;;11.46;100.00;102862.84;5210350;28;20067;-68
2022/04/29 09:21:22;;;;;;;24.83;12.55;;;;;;;11.57;100.00;102860.13;5210095;28;20461;-70
2022/04/29 09:23:56;;;;;;;33.00;13.07;;;;;;;11.50;100.00;102862.47;5204541;28;20017;-69
2022/04/29 09:26:43;;;;;;;33.97;13.85;;;;;;;11.41;100.00;102860.53;5208457;28;20112;-69
2022/04/29 09:29:16;;;;;;;30.65;12.23;;;;;;;11.29;100.00;102870.38;5210169;28;20439;-69
2022/04/29 09:31:58;;;;;;;30.70;13.55;;;;;;;11.20;100.00;102870.28;5205661;28;20044;-69
2022/04/29 09:34:50;;;;;;;29.00;13.25;;;;;;;11.33;100.00;102866.50;5211519;28;20574;-69
2022/04/29 09:37:23;;;;;;;36.00;14.48;;;;;;;11.29;100.00;102859.66;5207756;28;20108;-69
2022/04/29 09:40:10;;;;;;;38.90;14.02;;;;;;;11.33;100.00;102860.25;5208630;28;20092;-69
2022/04/29 09:42:43;;;;;;;39.10;13.88;;;;;;;11.41;100.00;102841.72;5208505;28;20033;-69
2022/04/29 09:45:17;;;;;;;34.03;13.68;;;;;;;11.44;100.00;102836.06;5208191;28;20025;-69
2022/04/29 09:47:53;;;;;;;35.25;14.95;;;;;;;11.56;100.00;102843.16;5201931;28;20030;-69
2022/04/29 09:51:00;;;;;;;29.08;13.63;;;;;;;11.71;100.00;102848.28;5210900;28;20053;-69
2022/04/29 09:53:30;;;;;;;;;;;;;;;11.90;100.00;102852.06;5204815;28;20032;-69
2022/04/29 09:56:19;;;;;;;33.78;13.52;;;;;;;11.90;100.00;102845.81;5199238;28;19909;-69
2022/04/29 09:58:50;;;;;;;38.45;14.00;;;;;;;12.00;100.00;102846.78;5202799;28;20635;-69
2022/04/29 10:01:21;;;;;;;34.58;14.65;;;;;;;12.22;100.00;102853.06;5211078;28;20382;-69
2022/04/29 10:03:51;;;;;;;35.65;14.82;;;;;;;12.45;100.00;102854.66;5206643;28;20062;-69
2022/04/29 10:06:24;;;;;;;29.42;14.20;;;;;;;12.25;100.00;102852.78;5209993;28;20087;-69
2022/04/29 10:08:58;;;;;;;32.45;13.70;;;;;;;12.36;100.00;102850.06;5201503;28;20478;-69
2022/04/29 10:11:33;;;;;;;35.97;15.18;;;;;;;12.31;100.00;102852.28;5214253;28;20162;-69
2022/04/29 10:14:05;;;;;;;41.77;15.37;;;;;;;12.31;100.00;102849.59;5207235;28;20128;-69
2022/04/29 10:16:36;;;;;;;31.02;14.70;;;;;;;12.28;100.00;102853.38;5210338;28;20386;-69
2022/04/29 10:22:03;;;;;;;30.33;14.32;;;;;;;12.41;100.00;102842.44;5202383;28;20170;-69
2022/04/29 10:24:34;;;;;;;37.78;14.75;;;;;;;12.60;100.00;102847.09;5202596;28;20107;-69
2022/04/29 10:27:05;;;;;;;28.73;13.43;;;;;;;12.97;100.00;102855.56;5210212;28;20113;-69
2022/04/29 10:29:36;;;;;;;32.90;15.00;;;;;;;12.90;100.00;102849.00;5207567;28;20429;-69
2022/04/29 10:32:09;;;;;;;31.48;14.07;;;;;;;13.10;100.00;102853.53;5207071;28;20022;-70
2022/04/29 10:34:39;;;;;;;29.00;15.23;;;;;;;12.99;100.00;102864.38;5210991;28;20035;-70
2022/04/29 10:37:30;;;;;;;32.55;14.32;;;;;;;13.13;100.00;102860.47;5211594;28;20022;-69
2022/04/29 10:40:11;;;;;;;29.48;14.25;;;;;;;13.34;100.00;102861.31;5214168;28;20402;-69
2022/04/29 10:43:21;;;;;;;32.88;13.75;;;;;;;13.42;100.00;102857.94;5213971;28;20036;-69
2022/04/29 10:46:15;;;;;;;36.58;14.25;;;;;;;13.15;100.00;102851.28;5210396;28;20049;-69
2022/04/29 10:49:05;;;;;;;30.00;15.25;;;;;;;13.18;100.00;102850.16;5210931;28;20048;-70
2022/04/29 10:51:36;;;;;;;31.05;13.95;;;;;;;13.23;100.00;102839.00;5204606;28;20072;-70
2022/04/29 10:54:07;;;;;;;31.40;13.40;;;;;;;13.16;100.00;102847.59;5220572;28;20021;-69
2022/04/29 10:56:38;;;;;;;38.50;15.63;;;;;;;13.13;100.00;102842.47;5213234;28;20053;-70
2022/04/29 10:59:10;;;;;;;34.45;15.65;;;;;;;13.41;100.00;102842.78;5207791;28;20040;-70
2022/04/29 11:01:49;;;;;;;36.42;16.40;;;;;;;13.47;100.00;102831.44;5207946;28;20033;-69
2022/04/29 11:04:42;;;;;;;35.15;16.23;;;;;;;13.79;100.00;102833.06;5217305;28;20033;-70
2022/04/29 11:07:44;;;;;;;29.17;14.38;;;;;;;13.97;100.00;102836.78;5210473;28;20034;-69
2022/04/29 11:10:18;;;;;;;37.33;15.70;;;;;;;13.97;100.00;102834.09;5207012;28;20061;-70
2022/04/29 11:12:56;;;;;;;37.20;16.45;;;;;;;14.12;100.00;102831.84;5210225;28;20028;-69
2022/04/29 11:15:41;;;;;;;31.23;14.63;;;;;;;14.22;100.00;102830.00;5208914;28;20029;-70
2022/04/29 11:18:15;;;;;;;35.07;14.67;;;;;;;14.31;100.00;102833.66;5203543;28;20106;-70
2022/04/29 11:20:48;;;;;;;34.42;15.82;;;;;;;14.38;100.00;102832.13;5204592;28;20021;-70
2022/04/29 11:26:26;;;;;;;36.85;15.98;;;;;;;14.06;100.00;102829.72;5205442;28;20395;-70
2022/04/29 11:28:57;;;;;;;32.05;15.18;;;;;;;13.87;100.00;102833.22;5213019;28;20056;-69
2022/04/29 11:31:35;;;;;;;31.40;15.23;;;;;;;14.10;100.00;102828.41;5203037;28;20021;-69
2022/04/29 11:34:07;;;;;;;41.42;15.80;;;;;;;14.23;100.00;102821.75;5211542;28;20055;-70
2022/04/29 11:36:38;;;;;;;38.65;14.73;;;;;;;14.48;100.00;102824.91;5201780;28;20437;-70
2022/04/29 11:39:34;;;;;;;35.78;15.05;;;;;;;14.59;100.00;102827.44;5201040;28;20053;-70
2022/04/29 11:42:04;;;;;;;27.92;15.38;;;;;;;14.90;100.00;102835.31;5204302;28;20100;-70
2022/04/29 11:44:38;;;;;;;41.28;15.50;;;;;;;15.39;100.00;102827.88;5214026;28;20077;-70
2022/04/29 11:47:09;;;;;;;33.40;15.30;;;;;;;15.68;100.00;102828.63;5204521;28;20053;-70
2022/04/29 11:49:39;;;;;;;36.47;15.43;;;;;;;15.47;100.00;102828.84;5212553;28;20021;-70
2022/04/29 11:52:22;;;;;;;28.05;14.68;;;;;;;15.47;100.00;102828.00;5208027;28;20545;-70
2022/04/29 11:54:55;;;;;;;34.25;15.52;;;;;;;15.37;100.00;102829.91;5215519;28;20048;-70
2022/04/29 11:57:30;;;;;;;37.35;16.45;;;;;;;15.55;100.00;102830.78;5209080;28;20566;-70
2022/04/29 12:00:03;;;;;;;33.67;15.80;;;;;;;16.07;100.00;102833.78;5204547;28;20053;-70
2022/04/29 12:02:34;;;;;;;27.05;14.55;;;;;;;16.15;100.00;102827.56;5210960;28;20147;-69
2022/04/29 12:05:06;;;;;;;31.15;16.30;;;;;;;15.91;100.00;102818.19;5205530;28;20108;-70